Time;durP1;ratioP1;P1;durP2;ratioP2;P2;SDS_P1;SDS_P2;PMS_P1;PMS_P2;Temp;Humidity;BMP_temperature;BMP_pressure;BME280_temperature;BME280_humidity;BME280_pressure;Samples;Min_cycle;Max_cycle;Signal;HPM_P1;HPM_P2
2022/09/03 00:02:05;;;;;;;6.97;2.50;;;;;;;;;;4974558;28;20199;-69
2022/09/03 00:04:50;;;;;;;12.57;3.28;;;;;;;;;;4974474;28;20137;-69
2022/09/03 00:07:18;;;;;;;4.35;2.40;;;;;;;;;;4973833;28;20026;-69
2022/09/03 00:09:47;;;;;;;5.20;2.55;;;;;;;;;;4978597;28;20417;-68
2022/09/03 00:12:17;;;;;;;4.55;2.40;;;;;;;;;;4970750;28;20039;-69
2022/09/03 00:14:56;;;;;;;4.70;2.38;;;;;;;;;;4970794;28;20496;-69
2022/09/03 00:17:23;;;;;;;7.25;2.63;;;;;;;;;;4975551;28;20046;-68
2022/09/03 00:19:54;;;;;;;8.05;2.40;;;;;;;;;;4976191;28;20030;-69
2022/09/03 00:22:20;;;;;;;;;;;;;;;;;;4975748;28;20057;-69
2022/09/03 00:24:49;;;;;;;3.65;2.35;;;;;;;;;;4975835;28;19921;-68
2022/09/03 00:27:20;;;;;;;6.78;2.50;;;;;;;;;;4974615;28;20038;-67
2022/09/03 00:29:45;;;;;;;;;;;;;;;;;;4976557;28;20049;-68
2022/09/03 00:32:15;;;;;;;5.30;2.50;;;;;;;;;;4974769;28;19917;-68
2022/09/03 00:34:44;;;;;;;6.32;2.42;;;;;;;;;;4973675;28;20038;-69
2022/09/03 00:37:11;;;;;;;8.45;2.95;;;;;;;;;;4974735;28;20047;-69
2022/09/03 00:39:37;;;;;;;10.55;2.50;;;;;;;;;;4977113;28;20549;-69
2022/09/03 00:42:06;;;;;;;9.52;2.67;;;;;;;;;;4975078;28;20121;-68
2022/09/03 00:44:33;;;;;;;4.60;2.50;;;;;;;;;;4975806;28;20424;-69
2022/09/03 00:47:18;;;;;;;3.40;2.35;;;;;;;;;;4975354;28;20030;-69
2022/09/03 00:49:44;;;;;;;4.85;2.50;;;;;;;;;;4926526;28;1407744;-69
2022/09/03 00:52:16;;;;;;;7.57;2.70;;;;;;;;;;4972962;28;20022;-69
2022/09/03 00:55:05;;;;;;;8.30;2.50;;;;;;;;;;4977228;28;20435;-69
2022/09/03 00:57:38;;;;;;;5.00;2.30;;;;;;;;;;4962458;28;20026;-69
2022/09/03 01:00:06;;;;;;;5.38;2.38;;;;;;;;;;4978235;28;20034;-69
2022/09/03 01:02:51;;;;;;;4.38;2.35;;;;;;;;;;4976572;28;20105;-69
2022/09/03 01:05:29;;;;;;;8.50;2.60;;;;;;;;;;4972096;28;20074;-69
2022/09/03 01:08:04;;;;;;;5.70;2.35;;;;;;;;;;4978672;28;20038;-69
2022/09/03 01:10:37;;;;;;;8.57;2.33;;;;;;;;;;4974115;28;20460;-69
2022/09/03 01:13:13;;;;;;;3.75;2.30;;;;;;;;;;4970968;28;20038;-69
2022/09/03 01:15:39;;;;;;;3.38;2.28;;;;;;;;;;4974908;28;20088;-70
2022/09/03 01:18:28;;;;;;;6.63;2.60;;;;;;;;;;4957708;28;20034;-69
2022/09/03 01:20:57;;;;;;;8.30;3.05;;;;;;;;;;4979010;28;20030;-69
2022/09/03 01:23:34;;;;;;;5.15;2.50;;;;;;;;;;4985349;28;20300;-69
2022/09/03 01:26:00;;;;;;;4.20;2.65;;;;;;;;;;4982110;28;20049;-69
2022/09/03 01:28:51;;;;;;;5.05;2.30;;;;;;;;;;4981567;28;20030;-69
2022/09/03 01:31:36;;;;;;;5.07;2.50;;;;;;;;;;4985013;28;20022;-69
2022/09/03 01:34:21;;;;;;;4.15;2.22;;;;;;;;;;4966023;28;20022;-69
2022/09/03 01:36:51;;;;;;;5.53;2.42;;;;;;;;;;4984613;28;20030;-69
2022/09/03 01:39:40;;;;;;;6.15;2.65;;;;;;;;;;4985397;28;20145;-69
2022/09/03 01:42:15;;;;;;;11.00;3.03;;;;;;;;;;4984981;28;20045;-69
2022/09/03 01:44:44;;;;;;;11.68;2.20;;;;;;;;;;4965256;28;20069;-69
2022/09/03 01:47:13;;;;;;;5.32;2.35;;;;;;;;;;4981266;28;20044;-70
2022/09/03 01:49:44;;;;;;;5.32;2.22;;;;;;;;;;4985389;28;20045;-69
2022/09/03 01:52:12;;;;;;;11.82;2.25;;;;;;;;;;4983447;28;20046;-69
2022/09/03 01:55:10;;;;;;;16.60;2.53;;;;;;;;;;4984570;28;20944;-69
2022/09/03 01:57:48;;;;;;;3.70;2.40;;;;;;;;;;4932366;28;20046;-69
2022/09/03 02:00:19;;;;;;;7.00;2.30;;;;;;;;;;4982311;28;20042;-69
2022/09/03 02:02:50;;;;;;;6.13;2.45;;;;;;;;;;4980703;28;20109;-69
2022/09/03 02:05:16;;;;;;;;;;;;;;;;;;4978398;28;20073;-70
2022/09/03 02:07:44;;;;;;;4.88;2.28;;;;;;;;;;4978978;28;19913;-69
2022/09/03 02:10:15;;;;;;;6.15;2.10;;;;;;;;;;4981557;28;20395;-69
2022/09/03 02:12:42;;;;;;;;;;;;;;;;;;4982251;28;20026;-70
2022/09/03 02:15:15;;;;;;;8.75;2.40;;;;;;;;;;4982337;28;19916;-70
2022/09/03 02:17:43;;;;;;;5.38;2.40;;;;;;;;;;4984987;28;20034;-70
2022/09/03 02:20:11;;;;;;;15.30;3.05;;;;;;;;;;4984135;28;20476;-70
2022/09/03 02:22:39;;;;;;;10.13;2.78;;;;;;;;;;4982466;28;20030;-69
2022/09/03 02:25:06;;;;;;;7.78;2.47;;;;;;;;;;4966445;28;20137;-69
2022/09/03 02:27:32;;;;;;;4.88;2.70;;;;;;;;;;4967155;28;20040;-69
2022/09/03 02:29:58;;;;;;;7.78;2.30;;;;;;;;;;4978605;28;20030;-69
2022/09/03 02:32:25;;;;;;;3.67;2.20;;;;;;;;;;4972611;28;20045;-69
2022/09/03 02:34:51;;;;;;;5.75;2.53;;;;;;;;;;4956846;28;20523;-68
2022/09/03 02:37:18;;;;;;;4.88;2.33;;;;;;;;;;4960196;28;20557;-68
2022/09/03 02:39:44;;;;;;;11.45;2.70;;;;;;;;;;4975100;28;20027;-68
2022/09/03 02:42:12;;;;;;;6.65;2.55;;;;;;;;;;4973545;28;20241;-67
2022/09/03 02:44:43;;;;;;;5.72;2.30;;;;;;;;;;4973592;28;20387;-68
2022/09/03 02:47:09;;;;;;;6.82;2.88;;;;;;;;;;4976565;28;20144;-68
2022/09/03 02:49:35;;;;;;;3.58;2.45;;;;;;;;;;4975850;28;20070;-68
2022/09/03 02:52:05;;;;;;;5.22;2.92;;;;;;;;;;4970392;28;20112;-69
2022/09/03 02:54:32;;;;;;;5.70;2.38;;;;;;;;;;4956628;28;20121;-69
2022/09/03 02:56:58;;;;;;;5.18;2.53;;;;;;;;;;4970042;28;20122;-69
2022/09/03 02:59:27;;;;;;;8.15;2.58;;;;;;;;;;4972466;28;20034;-69
2022/09/03 03:01:53;;;;;;;6.68;2.60;;;;;;;;;;4972172;28;20064;-69
2022/09/03 03:04:19;;;;;;;4.72;2.60;;;;;;;;;;4975854;28;20043;-68
2022/09/03 03:06:45;;;;;;;6.10;2.45;;;;;;;;;;4955247;28;20027;-69
2022/09/03 03:09:11;;;;;;;5.03;2.60;;;;;;;;;;4974845;28;20462;-69
2022/09/03 03:11:37;;;;;;;9.07;2.38;;;;;;;;;;4973921;28;20023;-68
2022/09/03 03:14:03;;;;;;;5.90;2.97;;;;;;;;;;4973017;28;20354;-68
2022/09/03 03:16:29;;;;;;;6.03;2.85;;;;;;;;;;4973711;28;20045;-69
2022/09/03 03:18:59;;;;;;;4.70;2.25;;;;;;;;;;4974466;28;20031;-69
2022/09/03 03:21:25;;;;;;;6.50;2.40;;;;;;;;;;4972693;28;20046;-69
2022/09/03 03:23:51;;;;;;;3.88;2.55;;;;;;;;;;4974376;28;20035;-69
2022/09/03 03:26:18;;;;;;;7.05;2.72;;;;;;;;;;4971555;28;20078;-70
2022/09/03 03:28:45;;;;;;;5.32;2.63;;;;;;;;;;4973333;28;20114;-69
2022/09/03 03:31:17;;;;;;;6.20;2.70;;;;;;;;;;4970204;28;20105;-69
2022/09/03 03:33:44;;;;;;;5.32;3.15;;;;;;;;;;4974046;28;20476;-69
2022/09/03 03:36:11;;;;;;;9.30;2.63;;;;;;;;;;4973700;28;20042;-70
2022/09/03 03:38:37;;;;;;;7.43;2.83;;;;;;;;;;4978453;28;20114;-70
2022/09/03 03:41:08;;;;;;;7.55;2.50;;;;;;;;;;4976885;28;20042;-69
2022/09/03 03:43:34;;;;;;;6.67;2.83;;;;;;;;;;4975640;28;20030;-69
2022/09/03 03:46:00;;;;;;;10.00;2.67;;;;;;;;;;4973120;28;20038;-69
2022/09/03 03:48:26;;;;;;;4.43;2.47;;;;;;;;;;4958502;28;20725;-70
2022/09/03 03:50:52;;;;;;;5.38;2.50;;;;;;;;;;4958686;28;20409;-69
2022/09/03 03:53:18;;;;;;;8.52;2.88;;;;;;;;;;4973214;28;20038;-69
2022/09/03 03:55:54;;;;;;;6.95;2.53;;;;;;;;;;4977342;28;20574;-69
2022/09/03 03:58:20;;;;;;;7.28;2.60;;;;;;;;;;4977240;28;20058;-70
2022/09/03 04:00:48;;;;;;;9.07;3.28;;;;;;;;;;4976200;28;20074;-68
2022/09/03 04:03:15;;;;;;;12.25;4.18;;;;;;;;;;4957568;28;20060;-68
2022/09/03 04:05:41;;;;;;;3.63;2.58;;;;;;;;;;4977879;28;20112;-68
2022/09/03 04:08:08;;;;;;;5.38;2.92;;;;;;;;;;4975396;28;20126;-68
2022/09/03 04:10:35;;;;;;;10.90;2.38;;;;;;;;;;4978799;28;20038;-69
2022/09/03 04:13:01;;;;;;;11.88;3.10;;;;;;;;;;4978544;28;20030;-68
2022/09/03 04:15:27;;;;;;;8.15;2.60;;;;;;;;;;4978067;28;20050;-69
2022/09/03 04:17:56;;;;;;;7.25;2.60;;;;;;;;;;4977254;28;20052;-69
2022/09/03 04:20:22;;;;;;;5.85;2.50;;;;;;;;;;4952631;28;20064;-69
2022/09/03 04:22:48;;;;;;;6.07;2.65;;;;;;;;;;4975281;28;20647;-68
2022/09/03 04:25:14;;;;;;;4.60;2.40;;;;;;;;;;4977642;28;20041;-69
2022/09/03 04:27:40;;;;;;;9.45;2.67;;;;;;;;;;4959921;28;20147;-69
2022/09/03 04:30:07;;;;;;;11.30;3.13;;;;;;;;;;4957195;28;20067;-69
2022/09/03 04:35:17;;;;;;;9.38;2.65;;;;;;;;;;4987013;28;20060;-69
2022/09/03 04:37:43;;;;;;;3.78;2.63;;;;;;;;;;4988318;28;20431;-69
2022/09/03 04:40:09;;;;;;;3.55;2.40;;;;;;;;;;4986715;28;20042;-68
2022/09/03 04:42:35;;;;;;;6.30;2.65;;;;;;;;;;4986685;28;20121;-68
2022/09/03 04:45:01;;;;;;;4.13;2.60;;;;;;;;;;4984447;28;20130;-68
2022/09/03 04:47:27;;;;;;;6.80;2.58;;;;;;;;;;4987691;28;20105;-68
2022/09/03 04:49:53;;;;;;;5.70;2.50;;;;;;;;;;4983218;28;20435;-68
2022/09/03 04:52:19;;;;;;;5.18;2.55;;;;;;;;;;4983276;28;20022;-69
2022/09/03 04:54:45;;;;;;;10.05;2.90;;;;;;;;;;4968174;28;20034;-69
2022/09/03 04:57:12;;;;;;;10.70;2.70;;;;;;;;;;4983227;28;20065;-69
2022/09/03 04:59:39;;;;;;;9.63;2.78;;;;;;;;;;4987599;28;20037;-69
2022/09/03 05:02:05;;;;;;;5.90;2.72;;;;;;;;;;4965593;28;20069;-68
2022/09/03 05:04:31;;;;;;;7.05;3.00;;;;;;;;;;4986716;28;20135;-69
2022/09/03 05:06:57;;;;;;;4.50;2.90;;;;;;;;;;4985903;28;20073;-68
2022/09/03 05:09:24;;;;;;;7.70;2.55;;;;;;;;;;4983775;28;20026;-69
2022/09/03 05:11:49;;;;;;;6.03;2.67;;;;;;;;;;4986874;28;20065;-68
2022/09/03 05:14:15;;;;;;;7.38;2.72;;;;;;;;;;4985487;28;20058;-69
2022/09/03 05:16:41;;;;;;;6.28;2.50;;;;;;;;;;4979973;28;21119;-71
2022/09/03 05:19:08;;;;;;;5.72;2.67;;;;;;;;;;4969377;28;20022;-71
2022/09/03 05:21:35;;;;;;;4.63;2.45;;;;;;;;;;4964243;28;20027;-69
2022/09/03 05:24:01;;;;;;;6.22;2.80;;;;;;;;;;4985648;28;20502;-69
2022/09/03 05:26:29;;;;;;;10.18;2.47;;;;;;;;;;4983505;28;20023;-69
2022/09/03 05:28:56;;;;;;;11.55;2.70;;;;;;;;;;4983534;28;20054;-70
2022/09/03 05:31:24;;;;;;;8.25;2.40;;;;;;;;;;4984594;28;20033;-70
2022/09/03 05:33:52;;;;;;;5.25;2.42;;;;;;;;;;4982350;28;20118;-69
2022/09/03 05:36:19;;;;;;;13.52;2.90;;;;;;;;;;4980704;28;20030;-69
2022/09/03 05:38:46;;;;;;;10.70;2.65;;;;;;;;;;4982064;28;20034;-69
2022/09/03 05:41:13;;;;;;;8.95;2.67;;;;;;;;;;4982610;28;20078;-69
2022/09/03 05:43:40;;;;;;;10.63;2.80;;;;;;;;;;4984214;28;20050;-70
2022/09/03 05:46:17;;;;;;;6.43;2.65;;;;;;;;;;4984662;28;20215;-70
2022/09/03 05:48:43;;;;;;;7.05;2.50;;;;;;;;;;4981408;28;20066;-69
2022/09/03 05:51:11;;;;;;;4.97;2.72;;;;;;;;;;4979758;28;20076;-69
2022/09/03 05:53:38;;;;;;;7.72;2.92;;;;;;;;;;4985013;28;20026;-69
2022/09/03 05:56:06;;;;;;;3.58;2.20;;;;;;;;;;4961334;28;20526;-69
2022/09/03 05:58:38;;;;;;;7.43;2.33;;;;;;;;;;4966827;28;20355;-69
2022/09/03 06:01:33;;;;;;;5.85;2.30;;;;;;;;;;4985866;28;20030;-70
2022/09/03 06:04:01;;;;;;;5.75;2.30;;;;;;;;;;4968304;28;20112;-69
2022/09/03 06:06:27;;;;;;;20.95;2.88;;;;;;;;;;4981055;28;20026;-69
2022/09/03 06:08:54;;;;;;;5.20;2.22;;;;;;;;;;4982036;28;20027;-69
2022/09/03 06:11:24;;;;;;;6.32;2.03;;;;;;;;;;4977471;28;20029;-68
2022/09/03 06:13:52;;;;;;;5.18;2.47;;;;;;;;;;4963607;28;20376;-69
2022/09/03 06:16:18;;;;;;;6.18;2.28;;;;;;;;;;4973676;28;20108;-69
2022/09/03 06:18:44;;;;;;;11.32;2.85;;;;;;;;;;4973050;28;20074;-69
2022/09/03 06:21:10;;;;;;;10.75;2.50;;;;;;;;;;4975550;28;20365;-69
2022/09/03 06:23:36;;;;;;;3.80;2.05;;;;;;;;;;4961644;28;20647;-69
2022/09/03 06:26:12;;;;;;;9.40;2.58;;;;;;;;;;4984786;28;20115;-69
2022/09/03 06:28:41;;;;;;;8.27;2.15;;;;;;;;;;4979900;28;20026;-69
2022/09/03 06:31:08;;;;;;;5.50;2.15;;;;;;;;;;4979383;28;20039;-70
2022/09/03 06:33:35;;;;;;;8.73;2.10;;;;;;;;;;4980844;28;20030;-69
2022/09/03 06:36:02;;;;;;;4.22;2.17;;;;;;;;;;4980880;28;20046;-69
2022/09/03 06:38:34;;;;;;;8.52;2.55;;;;;;;;;;4981448;28;20110;-69
2022/09/03 06:41:01;;;;;;;7.88;3.00;;;;;;;;;;4979240;28;20073;-69
2022/09/03 06:43:28;;;;;;;7.50;2.47;;;;;;;;;;4954736;28;20967;-68
2022/09/03 06:45:57;;;;;;;6.38;2.40;;;;;;;;;;4938220;28;20035;-70
2022/09/03 06:48:24;;;;;;;10.00;1.92;;;;;;;;;;4954543;28;20049;-70
2022/09/03 06:50:53;;;;;;;8.93;2.13;;;;;;;;;;4971205;28;20061;-70
2022/09/03 06:53:20;;;;;;;6.00;2.08;;;;;;;;;;4970580;28;20117;-70
2022/09/03 06:55:52;;;;;;;13.27;2.63;;;;;;;;;;4971205;28;20092;-70
2022/09/03 06:58:18;;;;;;;6.50;2.05;;;;;;;;;;4953355;28;20030;-70
2022/09/03 07:00:44;;;;;;;7.65;2.30;;;;;;;;;;4975473;28;20118;-70
2022/09/03 07:03:10;;;;;;;9.00;2.00;;;;;;;;;;4970456;28;20500;-69
2022/09/03 07:05:36;;;;;;;6.25;2.00;;;;;;;;;;4954990;28;20138;-70
2022/09/03 07:08:02;;;;;;;8.02;1.98;;;;;;;;;;4954666;28;20578;-70
2022/09/03 07:10:28;;;;;;;6.68;1.83;;;;;;;;;;4975857;28;20027;-70
2022/09/03 07:12:54;;;;;;;16.77;2.97;;;;;;;;;;4972873;28;20038;-69
2022/09/03 07:15:21;;;;;;;8.02;2.42;;;;;;;;;;4957893;28;20034;-70
2022/09/03 07:17:48;;;;;;;4.75;2.35;;;;;;;;;;4976515;28;20076;-70
2022/09/03 07:20:14;;;;;;;7.13;2.33;;;;;;;;;;4978833;28;20498;-70
2022/09/03 07:22:40;;;;;;;6.20;2.00;;;;;;;;;;4978825;28;20054;-69
2022/09/03 07:25:06;;;;;;;7.07;2.67;;;;;;;;;;4973973;28;20074;-69
2022/09/03 07:27:34;;;;;;;7.60;2.00;;;;;;;;;;4960075;28;20630;-69
2022/09/03 07:30:00;;;;;;;7.95;1.75;;;;;;;;;;4977812;28;20093;-69
2022/09/03 07:32:26;;;;;;;3.50;1.80;;;;;;;;;;4979093;28;20515;-69
2022/09/03 07:34:52;;;;;;;6.68;2.08;;;;;;;;;;4978981;28;20031;-69
2022/09/03 07:37:18;;;;;;;6.45;2.17;;;;;;;;;;4977771;28;20045;-69
2022/09/03 07:39:45;;;;;;;9.40;1.95;;;;;;;;;;4979867;28;20130;-69
2022/09/03 07:42:11;;;;;;;8.00;2.22;;;;;;;;;;4961767;28;20023;-69
2022/09/03 07:44:37;;;;;;;8.93;1.92;;;;;;;;;;4957103;28;20061;-70
2022/09/03 07:47:03;;;;;;;10.38;2.00;;;;;;;;;;4975947;28;20078;-69
2022/09/03 07:49:30;;;;;;;5.78;1.50;;;;;;;;;;4971602;28;20698;-69
2022/09/03 07:51:56;;;;;;;4.68;1.73;;;;;;;;;;4957423;28;20230;-69
2022/09/03 07:54:24;;;;;;;6.57;1.80;;;;;;;;;;4978872;28;20567;-69
2022/09/03 07:56:50;;;;;;;6.57;2.63;;;;;;;;;;4977322;28;20018;-69
2022/09/03 07:59:18;;;;;;;9.20;2.05;;;;;;;;;;4962219;28;20058;-69
2022/09/03 08:01:44;;;;;;;4.72;1.88;;;;;;;;;;4978829;28;20080;-69
2022/09/03 08:04:10;;;;;;;3.88;1.80;;;;;;;;;;4977846;28;20031;-70
2022/09/03 08:06:37;;;;;;;3.83;2.00;;;;;;;;;;4979733;28;20034;-70
2022/09/03 08:09:04;;;;;;;5.50;1.90;;;;;;;;;;4977283;28;20034;-71
2022/09/03 08:11:30;;;;;;;7.88;1.75;;;;;;;;;;4973298;28;20065;-69
2022/09/03 08:14:01;;;;;;;5.82;2.00;;;;;;;;;;4964172;28;20213;-69
2022/09/03 08:16:29;;;;;;;2.53;1.60;;;;;;;;;;4975609;28;20042;-69
2022/09/03 08:18:55;;;;;;;4.55;1.98;;;;;;;;;;4977323;28;20064;-69
2022/09/03 08:21:22;;;;;;;8.82;1.85;;;;;;;;;;4979025;28;20026;-69
2022/09/03 08:23:49;;;;;;;6.15;1.83;;;;;;;;;;4978047;28;20058;-69
2022/09/03 08:26:16;;;;;;;9.13;1.77;;;;;;;;;;4976266;28;20066;-69
2022/09/03 08:28:43;;;;;;;9.55;2.17;;;;;;;;;;4979775;28;20303;-69
2022/09/03 08:31:10;;;;;;;7.55;1.50;;;;;;;;;;4978568;28;20019;-69
2022/09/03 08:33:37;;;;;;;5.15;1.80;;;;;;;;;;4975199;28;20033;-70
2022/09/03 08:36:04;;;;;;;7.30;1.83;;;;;;;;;;4970680;28;20079;-69
2022/09/03 08:38:34;;;;;;;6.90;1.55;;;;;;;;;;4972494;28;20034;-69
2022/09/03 08:41:09;;;;;;;4.70;1.45;;;;;;;;;;4975406;28;20244;-69
2022/09/03 08:43:41;;;;;;;4.70;1.52;;;;;;;;;;4973278;28;20088;-70
2022/09/03 08:46:07;;;;;;;6.20;1.58;;;;;;;;;;4978381;28;20033;-70
2022/09/03 08:48:34;;;;;;;18.27;2.03;;;;;;;;;;4971765;28;20034;-70
2022/09/03 08:51:01;;;;;;;22.63;3.60;;;;;;;;;;4971987;28;20035;-69
2022/09/03 08:53:27;;;;;;;5.70;1.70;;;;;;;;;;4982439;28;20492;-69
2022/09/03 08:55:55;;;;;;;6.32;1.70;;;;;;;;;;4975497;28;20042;-69
2022/09/03 08:58:25;;;;;;;6.60;1.48;;;;;;;;;;4956710;28;20031;-69
2022/09/03 09:01:02;;;;;;;5.40;1.98;;;;;;;;;;4974973;28;20484;-70
2022/09/03 09:03:37;;;;;;;6.13;1.88;;;;;;;;;;4981973;28;20519;-70
2022/09/03 09:06:07;;;;;;;7.53;1.77;;;;;;;;;;4975222;28;20043;-70
2022/09/03 09:08:37;;;;;;;11.48;1.50;;;;;;;;;;4979033;28;20049;-70
2022/09/03 09:11:30;;;;;;;11.63;2.10;;;;;;;;;;4976639;28;20041;-70
2022/09/03 09:13:59;;;;;;;10.43;1.63;;;;;;;;;;4972004;28;20050;-70
2022/09/03 09:16:36;;;;;;;13.93;1.90;;;;;;;;;;4958332;28;20034;-69
2022/09/03 09:19:11;;;;;;;11.18;2.15;;;;;;;;;;4975988;28;20031;-69
2022/09/03 09:21:44;;;;;;;5.85;1.40;;;;;;;;;;4973568;28;20035;-70
2022/09/03 09:24:20;;;;;;;5.95;1.67;;;;;;;;;;4975693;28;20092;-70
2022/09/03 09:26:47;;;;;;;6.88;1.50;;;;;;;;;;4972137;28;20166;-69
2022/09/03 09:29:13;;;;;;;4.80;2.05;;;;;;;;;;4980406;28;20026;-70
2022/09/03 09:31:43;;;;;;;6.95;1.67;;;;;;;;;;4977492;28;20515;-69
2022/09/03 09:34:09;;;;;;;10.83;1.60;;;;;;;;;;4956383;28;20049;-70
2022/09/03 09:36:41;;;;;;;6.93;1.50;;;;;;;;;;4975299;28;20612;-72
2022/09/03 09:39:08;;;;;;;4.28;1.50;;;;;;;;;;4974331;28;20035;-70
2022/09/03 09:41:34;;;;;;;8.57;1.70;;;;;;;;;;4974122;28;21764;-69
2022/09/03 09:44:01;;;;;;;4.30;1.70;;;;;;;;;;4988614;28;20496;-70
2022/09/03 09:46:31;;;;;;;7.22;2.25;;;;;;;;;;4969500;28;20164;-69
2022/09/03 09:48:57;;;;;;;;;;;;;;;;;;4990412;28;20065;-69
2022/09/03 09:51:31;;;;;;;7.65;1.77;;;;;;;;;;4989282;28;20398;-69
2022/09/03 09:54:20;;;;;;;3.30;1.50;;;;;;;;;;4985146;28;20114;-69
2022/09/03 09:56:47;;;;;;;8.60;1.50;;;;;;;;;;4988004;28;20041;-70
2022/09/03 09:59:14;;;;;;;18.45;2.03;;;;;;;;;;4990556;28;20093;-68
2022/09/03 10:01:41;;;;;;;5.22;1.40;;;;;;;;;;4971113;28;20030;-68
2022/09/03 10:04:23;;;;;;;4.43;1.27;;;;;;;;;;4988401;28;20070;-69
2022/09/03 10:06:56;;;;;;;10.80;2.00;;;;;;;;;;4987825;28;20034;-70
2022/09/03 10:09:23;;;;;;;9.38;1.63;;;;;;;;;;4965422;28;20558;-69
2022/09/03 10:12:13;;;;;;;11.18;1.50;;;;;;;;;;4988721;28;20081;-68
2022/09/03 10:14:46;;;;;;;7.43;1.70;;;;;;;;;;4989814;28;20051;-69
2022/09/03 10:17:48;;;;;;;9.25;2.00;;;;;;;;;;4988150;28;20296;-69
2022/09/03 10:20:32;;;;;;;5.30;1.30;;;;;;;;;;4891482;29;20107;-69
2022/09/03 10:23:09;;;;;;;7.78;1.30;;;;;;;;;;4965587;28;20097;-70
2022/09/03 10:25:44;;;;;;;10.43;2.00;;;;;;;;;;4986248;28;20123;-69
2022/09/03 10:28:10;;;;;;;4.10;1.20;;;;;;;;;;4983411;28;20058;-70
2022/09/03 10:30:49;;;;;;;6.22;1.52;;;;;;;;;;4977936;28;20038;-69
2022/09/03 10:33:23;;;;;;;6.05;1.55;;;;;;;;;;4979709;28;20030;-69
2022/09/03 10:35:57;;;;;;;6.15;1.65;;;;;;;;;;4983582;28;20026;-68
2022/09/03 10:38:24;;;;;;;11.75;1.83;;;;;;;;;;4989880;28;20053;-68
2022/09/03 10:40:53;;;;;;;9.68;2.17;;;;;;;;;;4982324;28;20601;-68
2022/09/03 10:43:38;;;;;;;7.82;1.52;;;;;;;;;;4979259;28;20026;-68
2022/09/03 10:46:13;;;;;;;20.38;2.13;;;;;;;;;;4984699;28;20080;-69
2022/09/03 10:48:58;;;;;;;7.90;1.55;;;;;;;;;;4990522;28;20112;-69
2022/09/03 10:51:24;;;;;;;13.35;1.33;;;;;;;;;;4983320;28;20026;-68
2022/09/03 10:53:58;;;;;;;5.72;1.67;;;;;;;;;;4977538;28;20357;-68
2022/09/03 10:56:43;;;;;;;13.40;1.70;;;;;;;;;;4979130;28;20045;-68
2022/09/03 10:59:09;;;;;;;12.65;1.63;;;;;;;;;;4963864;28;20026;-69
2022/09/03 11:01:56;;;;;;;6.07;1.50;;;;;;;;;;4981489;28;20066;-68
2022/09/03 11:04:35;;;;;;;6.45;1.30;;;;;;;;;;4973331;28;20046;-70
2022/09/03 11:07:07;;;;;;;4.25;1.40;;;;;;;;;;4973540;28;20562;-68
2022/09/03 11:09:50;;;;;;;9.43;1.40;;;;;;;;;;4977325;28;20045;-69
2022/09/03 11:12:36;;;;;;;7.28;1.65;;;;;;;;;;4977564;28;20069;-69
2022/09/03 11:15:04;;;;;;;8.57;1.80;;;;;;;;;;4981376;28;20092;-67
2022/09/03 11:17:36;;;;;;;6.45;1.50;;;;;;;;;;4977048;28;20042;-67
2022/09/03 11:20:02;;;;;;;10.15;2.05;;;;;;;;;;4978716;28;20126;-68
2022/09/03 11:22:29;;;;;;;8.32;1.55;;;;;;;;;;4973097;28;20138;-68
2022/09/03 11:24:58;;;;;;;6.10;1.60;;;;;;;;;;4975528;28;20085;-68
2022/09/03 11:27:25;;;;;;;9.80;1.70;;;;;;;;;;4978325;28;20026;-68
2022/09/03 11:29:57;;;;;;;15.13;1.90;;;;;;;;;;4962573;28;20392;-68
2022/09/03 11:32:26;;;;;;;6.90;1.70;;;;;;;;;;4978518;28;20026;-68
2022/09/03 11:34:54;;;;;;;9.27;1.85;;;;;;;;;;4976795;28;20034;-66
2022/09/03 11:37:20;;;;;;;9.38;1.77;;;;;;;;;;4962549;28;20460;-67
2022/09/03 11:40:05;;;;;;;9.50;1.60;;;;;;;;;;4974731;28;20026;-68
2022/09/03 11:42:35;;;;;;;4.35;1.45;;;;;;;;;;4960769;28;20128;-67
2022/09/03 11:45:20;;;;;;;3.03;1.50;;;;;;;;;;4981054;28;20133;-67
2022/09/03 11:47:46;;;;;;;2.58;1.20;;;;;;;;;;4982625;28;20053;-67
2022/09/03 11:50:19;;;;;;;8.25;1.45;;;;;;;;;;4973454;28;20038;-67
2022/09/03 11:52:47;;;;;;;5.43;1.50;;;;;;;;;;4984443;28;20514;-68
2022/09/03 11:55:24;;;;;;;7.88;1.63;;;;;;;;;;4990778;28;20512;-69
2022/09/03 11:57:50;;;;;;;6.25;1.30;;;;;;;;;;4991095;28;20121;-69
2022/09/03 12:00:21;;;;;;;5.18;1.50;;;;;;;;;;4986289;28;20034;-69
2022/09/03 12:02:49;;;;;;;8.98;1.40;;;;;;;;;;4983269;28;20073;-69
2022/09/03 12:05:27;;;;;;;6.00;1.77;;;;;;;;;;4990005;28;20126;-68
2022/09/03 12:08:08;;;;;;;6.07;1.40;;;;;;;;;;4991620;28;20038;-68
2022/09/03 12:10:34;;;;;;;7.05;1.30;;;;;;;;;;4991248;28;20038;-68
2022/09/03 12:13:12;;;;;;;7.85;1.42;;;;;;;;;;4982898;28;20054;-68
2022/09/03 12:15:52;;;;;;;4.35;1.35;;;;;;;;;;4981199;28;20061;-68
2022/09/03 12:18:28;;;;;;;5.82;1.58;;;;;;;;;;4986012;28;20049;-68
2022/09/03 12:20:54;;;;;;;14.93;1.88;;;;;;;;;;4990887;28;20069;-68
2022/09/03 12:23:29;;;;;;;2.80;1.35;;;;;;;;;;4985915;28;20033;-68
2022/09/03 12:25:55;;;;;;;6.40;1.90;;;;;;;;;;4991376;28;20053;-68
2022/09/03 12:28:22;;;;;;;9.82;1.42;;;;;;;;;;4991987;28;20053;-67
2022/09/03 12:30:52;;;;;;;5.25;1.67;;;;;;;;;;4990595;28;20030;-68
2022/09/03 12:33:21;;;;;;;5.18;1.70;;;;;;;;;;4992206;28;20479;-68
2022/09/03 12:35:57;;;;;;;4.28;1.40;;;;;;;;;;4990268;28;20037;-67
2022/09/03 12:38:28;;;;;;;8.63;1.73;;;;;;;;;;4987348;28;20030;-67
2022/09/03 12:40:54;;;;;;;6.88;1.60;;;;;;;;;;4987395;28;20022;-68
2022/09/03 12:43:21;;;;;;;7.47;1.40;;;;;;;;;;4986830;28;20026;-68
2022/09/03 12:45:49;;;;;;;8.65;1.80;;;;;;;;;;4991205;28;20124;-68
2022/09/03 12:48:16;;;;;;;6.20;1.33;;;;;;;;;;4990819;28;20034;-67
2022/09/03 12:50:43;;;;;;;4.88;1.40;;;;;;;;;;4987169;28;20058;-68
2022/09/03 12:53:11;;;;;;;3.53;1.38;;;;;;;;;;4989997;28;20034;-69
2022/09/03 12:55:39;;;;;;;5.78;1.63;;;;;;;;;;4985033;28;20026;-68
2022/09/03 12:58:25;;;;;;;6.20;1.70;;;;;;;;;;4988133;28;20038;-69
2022/09/03 13:00:55;;;;;;;6.40;1.70;;;;;;;;;;4971152;28;20404;-67
2022/09/03 13:03:29;;;;;;;5.25;1.63;;;;;;;;;;4987816;28;20510;-68
2022/09/03 13:06:05;;;;;;;4.45;1.33;;;;;;;;;;4978308;28;20446;-69
2022/09/03 13:08:33;;;;;;;12.52;1.58;;;;;;;;;;4991604;28;20027;-69
2022/09/03 13:11:03;;;;;;;5.70;1.63;;;;;;;;;;4984191;28;20030;-71
2022/09/03 13:13:31;;;;;;;4.57;1.40;;;;;;;;;;4970529;28;20019;-69
2022/09/03 13:16:15;;;;;;;4.85;1.33;;;;;;;;;;4990430;28;20105;-69
2022/09/03 13:18:47;;;;;;;10.30;1.55;;;;;;;;;;4992347;28;20030;-69
2022/09/03 13:21:19;;;;;;;4.50;1.70;;;;;;;;;;4991826;28;20433;-69
2022/09/03 13:23:55;;;;;;;6.03;1.50;;;;;;;;;;4986046;28;20030;-69
2022/09/03 13:26:44;;;;;;;3.65;1.27;;;;;;;;;;4988586;28;20671;-69
2022/09/03 13:29:19;;;;;;;4.30;1.30;;;;;;;;;;4975892;28;20034;-69
2022/09/03 13:31:52;;;;;;;9.68;1.65;;;;;;;;;;4981352;28;20021;-69
2022/09/03 13:34:36;;;;;;;7.03;1.38;;;;;;;;;;4990305;28;20551;-68
2022/09/03 13:37:18;;;;;;;9.77;1.40;;;;;;;;;;4987113;28;20030;-69
2022/09/03 13:39:51;;;;;;;6.47;1.30;;;;;;;;;;4984004;28;20053;-69
2022/09/03 13:42:23;;;;;;;4.32;1.33;;;;;;;;;;4988926;28;20026;-69
2022/09/03 13:45:27;;;;;;;6.43;1.52;;;;;;;;;;4988131;28;20022;-70
2022/09/03 13:50:52;;;;;;;4.80;1.75;;;;;;;;;;4929138;29;20063;-69
2022/09/03 13:53:31;;;;;;;11.10;2.00;;;;;;;;;;4960560;28;20065;-68
2022/09/03 13:56:05;;;;;;;7.10;1.30;;;;;;;;;;4988734;28;20034;-68
2022/09/03 13:58:31;;;;;;;3.17;1.60;;;;;;;;;;4969596;28;20093;-69
2022/09/03 14:00:57;;;;;;;3.00;1.38;;;;;;;;;;4983703;28;20035;-69
2022/09/03 14:03:43;;;;;;;2.25;1.25;;;;;;;;;;4988692;28;20037;-68
2022/09/03 14:06:28;;;;;;;4.80;1.50;;;;;;;;;;4989380;28;20052;-69
2022/09/03 14:09:13;;;;;;;2.67;1.35;;;;;;;;;;4989879;28;20042;-68
2022/09/03 14:11:57;;;;;;;8.95;1.80;;;;;;;;;;4986898;28;20412;-68
2022/09/03 14:14:42;;;;;;;3.08;1.27;;;;;;;;;;4984168;28;20206;-69
2022/09/03 14:17:36;;;;;;;3.80;1.40;;;;;;;;;;4959321;28;20027;-69
2022/09/03 14:20:06;;;;;;;4.53;1.50;;;;;;;;;;4986647;28;20368;-70
2022/09/03 14:22:51;;;;;;;3.50;1.48;;;;;;;;;;4969210;28;20235;-70
2022/09/03 14:25:19;;;;;;;3.78;1.25;;;;;;;;;;4984126;28;20065;-70
2022/09/03 14:27:45;;;;;;;4.13;1.58;;;;;;;;;;4979186;28;20022;-70
2022/09/03 14:30:37;;;;;;;6.63;1.60;;;;;;;;;;4983568;28;20022;-70
2022/09/03 14:33:12;;;;;;;4.50;1.50;;;;;;;;;;4948027;28;20423;-69
2022/09/03 14:36:01;;;;;;;3.78;1.52;;;;;;;;;;4983374;28;20030;-70
2022/09/03 14:38:27;;;;;;;5.83;1.47;;;;;;;;;;4962293;28;20068;-70
2022/09/03 14:41:07;;;;;;;12.27;1.67;;;;;;;;;;4976991;28;20034;-68
2022/09/03 14:43:33;;;;;;;;;;;;;;;;;;4988207;28;20034;-68
2022/09/03 14:45:59;;;;;;;3.47;1.83;;;;;;;;;;4986251;28;20394;-69
2022/09/03 14:48:45;;;;;;;8.95;1.63;;;;;;;;;;4988880;28;20077;-69
2022/09/03 14:51:11;;;;;;;6.53;1.50;;;;;;;;;;4982509;28;20034;-69
2022/09/03 14:54:02;;;;;;;7.30;1.73;;;;;;;;;;4985668;28;20049;-68
2022/09/03 14:56:28;;;;;;;11.13;1.67;;;;;;;;;;4981168;28;20125;-68
2022/09/03 14:59:00;;;;;;;6.70;1.65;;;;;;;;;;4963852;28;20086;-68
2022/09/03 15:01:32;;;;;;;6.97;1.77;;;;;;;;;;4978028;28;20038;-69
2022/09/03 15:04:14;;;;;;;6.72;1.83;;;;;;;;;;4972412;28;20030;-69
2022/09/03 15:07:04;;;;;;;3.10;1.60;;;;;;;;;;4975305;28;20039;-68
2022/09/03 15:09:39;;;;;;;7.30;1.65;;;;;;;;;;4972459;28;20034;-69
2022/09/03 15:12:29;;;;;;;5.85;1.63;;;;;;;;;;4973674;28;20023;-70